createdAt,value
2018-09-24T00:00:39.666Z,892.14
2018-09-24T00:01:39.653Z,892.13
2018-09-24T00:02:39.645Z,892.18
2018-09-24T00:03:39.633Z,892.27
2018-09-24T00:04:39.622Z,892.26
2018-09-24T00:05:39.610Z,892.33
2018-09-24T00:06:39.601Z,892.34
2018-09-24T00:07:39.588Z,892.38
2018-09-24T00:08:39.581Z,892.38
2018-09-24T00:09:39.561Z,892.38
2018-09-24T00:10:39.557Z,892.31
2018-09-24T00:11:39.546Z,892.24
2018-09-24T00:12:39.529Z,892.25
2018-09-24T00:13:39.524Z,892.27
2018-09-24T00:14:39.507Z,892.40
2018-09-24T00:15:39.499Z,892.41
2018-09-24T00:16:39.486Z,892.45
2018-09-24T00:17:39.472Z,892.42
2018-09-24T00:18:39.464Z,892.43
2018-09-24T00:19:39.452Z,892.42
2018-09-24T00:20:39.443Z,892.47
2018-09-24T00:21:39.429Z,892.47
2018-09-24T00:22:39.418Z,892.34
2018-09-24T00:23:39.408Z,892.33
2018-09-24T00:24:39.397Z,892.13
2018-09-24T00:25:39.383Z,892.17
2018-09-24T00:26:39.387Z,892.16
2018-09-24T00:27:39.363Z,892.21
2018-09-24T00:28:39.353Z,892.23
2018-09-24T00:29:39.346Z,892.23
2018-09-24T00:30:39.333Z,892.23
2018-09-24T00:31:39.323Z,892.17
2018-09-24T00:32:39.312Z,892.10
2018-09-24T00:33:39.296Z,892.13
2018-09-24T00:34:39.288Z,892.11
2018-09-24T00:35:39.282Z,892.15
2018-09-24T00:36:39.264Z,892.17
2018-09-24T00:37:39.250Z,892.20
2018-09-24T00:38:39.237Z,892.22
2018-09-24T00:39:39.230Z,892.08
2018-09-24T00:40:39.213Z,892.17
2018-09-24T00:41:39.206Z,892.22
2018-09-24T00:42:39.194Z,892.25
2018-09-24T00:43:39.259Z,892.24
2018-09-24T00:44:39.175Z,892.26
2018-09-24T00:45:39.157Z,892.26
2018-09-24T00:46:39.149Z,892.30
2018-09-24T00:47:39.139Z,892.27
2018-09-24T00:48:39.125Z,892.19
2018-09-24T00:49:39.115Z,892.11
2018-09-24T00:50:39.106Z,892.06
2018-09-24T00:51:39.094Z,892.01
2018-09-24T00:52:39.078Z,892.06
2018-09-24T00:53:39.069Z,892.04
2018-09-24T00:54:39.054Z,892.10
2018-09-24T00:55:39.045Z,892.11
2018-09-24T00:56:39.034Z,892.14
2018-09-24T00:57:39.027Z,892.09
2018-09-24T00:58:39.013Z,892.04
2018-09-24T00:59:38.999Z,892.08
2018-09-24T01:00:38.990Z,892.08
2018-09-24T01:01:38.972Z,892.23
2018-09-24T01:02:38.968Z,892.23
2018-09-24T01:03:38.956Z,892.24
2018-09-24T01:04:38.941Z,892.30
2018-09-24T01:05:38.931Z,892.30
2018-09-24T01:06:38.932Z,892.32
2018-09-24T01:07:38.907Z,892.29
2018-09-24T01:08:38.894Z,892.24
2018-09-24T01:09:38.884Z,892.24
2018-09-24T01:10:38.876Z,892.24
2018-09-24T01:11:38.864Z,892.29
2018-09-24T01:12:38.849Z,892.23
2018-09-24T01:13:38.837Z,892.20
2018-09-24T01:14:38.824Z,892.24
2018-09-24T01:15:38.811Z,892.13
2018-09-24T01:16:38.802Z,892.18
2018-09-24T01:17:38.790Z,892.24
2018-09-24T01:18:38.780Z,892.24
2018-09-24T01:19:38.768Z,892.23
2018-09-24T01:20:38.769Z,892.27
2018-09-24T01:21:38.747Z,892.29
2018-09-24T01:22:38.744Z,892.30
2018-09-24T01:23:38.724Z,892.29
2018-09-24T01:24:38.711Z,892.33
2018-09-24T01:25:38.697Z,892.44
2018-09-24T01:26:38.690Z,892.50
2018-09-24T01:27:38.675Z,892.45
2018-09-24T01:28:38.662Z,892.49
2018-09-24T01:29:38.650Z,892.45
2018-09-24T01:30:38.641Z,892.34
2018-09-24T01:31:38.628Z,892.28
2018-09-24T01:32:38.614Z,892.28
2018-09-24T01:33:38.606Z,892.28
2018-09-24T01:34:38.586Z,892.30
2018-09-24T01:35:38.582Z,892.34
2018-09-24T01:36:38.567Z,892.36
2018-09-24T01:37:38.563Z,892.45
2018-09-24T01:38:38.551Z,892.40
2018-09-24T01:39:38.538Z,892.32
2018-09-24T01:40:38.522Z,892.27
2018-09-24T01:41:38.512Z,892.27
2018-09-24T01:42:38.497Z,892.28
2018-09-24T01:43:38.491Z,892.30
2018-09-24T01:44:38.476Z,892.31
2018-09-24T01:45:38.466Z,892.28
2018-09-24T01:46:38.453Z,892.27
2018-09-24T01:47:38.444Z,892.26
2018-09-24T01:48:38.426Z,892.27
2018-09-24T01:49:38.427Z,892.22
2018-09-24T01:50:38.405Z,892.16
2018-09-24T01:51:38.396Z,892.18
2018-09-24T01:52:38.384Z,892.17
2018-09-24T01:53:38.378Z,892.19
2018-09-24T01:54:38.360Z,892.18
2018-09-24T01:55:38.347Z,892.13
2018-09-24T01:56:38.336Z,892.11
2018-09-24T01:57:38.324Z,892.18
2018-09-24T01:58:38.316Z,892.23
2018-09-24T01:59:38.304Z,892.26
2018-09-24T02:00:38.295Z,892.24
2018-09-24T02:01:38.278Z,892.27
2018-09-24T02:02:38.265Z,892.20
2018-09-24T02:03:38.255Z,892.26
2018-09-24T02:04:38.244Z,892.24
2018-09-24T02:05:38.234Z,892.22
2018-09-24T02:06:38.218Z,892.29
2018-09-24T02:07:38.212Z,892.30
2018-09-24T02:08:38.200Z,892.23
2018-09-24T02:09:38.183Z,892.22
2018-09-24T02:10:38.171Z,892.23
2018-09-24T02:11:38.165Z,892.31
2018-09-24T02:12:38.149Z,892.36
2018-09-24T02:13:38.149Z,892.34
2018-09-24T02:14:38.124Z,892.33
2018-09-24T02:15:38.113Z,892.33
2018-09-24T02:16:38.099Z,892.38
2018-09-24T02:17:38.092Z,892.45
2018-09-24T02:18:38.079Z,892.44
2018-09-24T02:19:38.067Z,892.46
2018-09-24T02:20:38.055Z,892.46
2018-09-24T02:21:38.046Z,892.45
2018-09-24T02:22:38.035Z,892.43
2018-09-24T02:23:38.023Z,892.40
2018-09-24T02:24:38.005Z,892.39
2018-09-24T02:25:38.001Z,892.37
2018-09-24T02:26:37.988Z,892.39
2018-09-24T02:27:37.979Z,892.45
2018-09-24T02:28:37.959Z,892.48
2018-09-24T02:29:37.951Z,892.49
2018-09-24T02:30:37.937Z,892.52
2018-09-24T02:31:37.925Z,892.53
2018-09-24T02:32:37.914Z,892.52
2018-09-24T02:33:37.910Z,892.53
2018-09-24T02:34:37.892Z,892.51
2018-09-24T02:35:37.882Z,892.55
2018-09-24T02:36:37.868Z,892.52
2018-09-24T02:37:37.855Z,892.54
2018-09-24T02:38:37.844Z,892.50
2018-09-24T02:39:37.838Z,892.56
2018-09-24T02:40:37.828Z,892.57
2018-09-24T02:41:37.864Z,892.60
2018-09-24T02:42:37.797Z,892.58
2018-09-24T02:43:37.806Z,892.61
2018-09-24T02:44:37.772Z,892.63
2018-09-24T02:45:37.763Z,892.60
2018-09-24T02:46:37.775Z,892.58
2018-09-24T02:47:37.742Z,892.57
2018-09-24T02:48:37.726Z,892.61
2018-09-24T02:49:37.714Z,892.59
2018-09-24T02:50:37.757Z,892.61
2018-09-24T02:51:37.686Z,892.65
2018-09-24T02:52:37.690Z,892.65
2018-09-24T02:53:37.665Z,892.65
2018-09-24T02:54:37.658Z,892.70
2018-09-24T02:55:37.652Z,892.67
2018-09-24T02:56:37.633Z,892.66
2018-09-24T02:57:37.621Z,892.74
2018-09-24T02:58:37.603Z,892.71
2018-09-24T02:59:37.595Z,892.70
2018-09-24T03:00:37.584Z,892.75
2018-09-24T03:01:37.568Z,892.78
2018-09-24T03:02:37.556Z,892.86
2018-09-24T03:03:37.552Z,892.84
2018-09-24T03:04:37.536Z,892.85
2018-09-24T03:05:37.529Z,892.86
2018-09-24T03:06:37.511Z,892.93
2018-09-24T03:07:37.498Z,892.96
2018-09-24T03:08:37.482Z,892.99
2018-09-24T03:09:37.478Z,892.99
2018-09-24T03:10:37.462Z,892.98
2018-09-24T03:11:37.458Z,892.98
2018-09-24T03:12:37.436Z,893.00
2018-09-24T03:13:37.430Z,893.04
2018-09-24T03:14:37.413Z,893.06
2018-09-24T03:15:37.407Z,893.07
2018-09-24T03:16:37.390Z,893.04
2018-09-24T03:17:37.378Z,893.03
2018-09-24T03:18:37.371Z,893.07
2018-09-24T03:19:37.354Z,893.05
2018-09-24T03:20:37.345Z,893.03
2018-09-24T03:21:37.333Z,892.98
2018-09-24T03:22:37.323Z,892.99
2018-09-24T03:23:37.311Z,893.08
2018-09-24T03:24:37.297Z,893.06
2018-09-24T03:25:37.289Z,893.07
2018-09-24T03:26:37.273Z,893.10
2018-09-24T03:27:37.279Z,893.06
2018-09-24T03:28:37.244Z,893.08
2018-09-24T03:29:37.236Z,893.07
2018-09-24T03:30:37.220Z,893.07
2018-09-24T03:31:37.216Z,893.05
2018-09-24T03:32:37.194Z,893.09
2018-09-24T03:33:37.187Z,893.09
2018-09-24T03:34:37.180Z,893.09
2018-09-24T03:35:37.164Z,893.09
2018-09-24T03:36:37.148Z,893.08
2018-09-24T03:37:37.143Z,893.06
2018-09-24T03:38:37.127Z,893.09
2018-09-24T03:39:37.113Z,893.09
2018-09-24T03:40:37.103Z,893.04
2018-09-24T03:41:37.090Z,893.09
2018-09-24T03:42:37.081Z,893.07
2018-09-24T03:43:37.068Z,893.02
2018-09-24T03:44:37.054Z,893.07
2018-09-24T03:45:37.042Z,893.09
2018-09-24T03:46:37.030Z,893.12
2018-09-24T03:47:37.020Z,893.10
2018-09-24T03:48:37.006Z,893.12
2018-09-24T03:49:36.996Z,893.11
2018-09-24T03:50:36.979Z,893.11
2018-09-24T03:51:36.970Z,893.06
2018-09-24T03:52:36.955Z,893.04
2018-09-24T03:53:36.946Z,893.00
2018-09-24T03:54:36.933Z,892.98
2018-09-24T03:55:36.919Z,893.01
2018-09-24T03:56:36.915Z,892.95
2018-09-24T03:57:36.895Z,892.98
2018-09-24T03:58:36.884Z,892.97
2018-09-24T03:59:36.873Z,893.01
2018-09-24T04:00:36.862Z,893.03
2018-09-24T04:01:36.846Z,893.05
2018-09-24T04:02:36.841Z,893.09
2018-09-24T04:03:36.818Z,893.04
2018-09-24T04:04:36.806Z,893.07
2018-09-24T04:05:36.797Z,893.08
2018-09-24T04:06:36.786Z,893.07
2018-09-24T04:07:36.776Z,893.10
2018-09-24T04:08:36.761Z,893.03
2018-09-24T04:09:36.758Z,893.06
2018-09-24T04:10:36.738Z,893.10
2018-09-24T04:11:36.727Z,893.19
2018-09-24T04:12:36.714Z,893.21
2018-09-24T04:13:36.701Z,893.24
2018-09-24T04:14:36.694Z,893.21
2018-09-24T04:15:36.674Z,893.24
2018-09-24T04:16:36.668Z,893.21
2018-09-24T04:17:36.652Z,893.23
2018-09-24T04:18:36.635Z,893.22
2018-09-24T04:19:36.760Z,893.20
2018-09-24T04:20:36.616Z,893.23
2018-09-24T04:21:36.602Z,893.23
2018-09-24T04:22:36.588Z,893.23
2018-09-24T04:23:36.578Z,893.23
2018-09-24T04:24:36.560Z,893.24
2018-09-24T04:25:36.555Z,893.29
2018-09-24T04:26:36.542Z,893.29
2018-09-24T04:27:36.534Z,893.29
2018-09-24T04:28:36.521Z,893.35
2018-09-24T04:29:36.502Z,893.37
2018-09-24T04:30:36.490Z,893.38
2018-09-24T04:31:36.485Z,893.35
2018-09-24T04:32:36.464Z,893.40
2018-09-24T04:33:36.456Z,893.44
2018-09-24T04:34:36.442Z,893.46
2018-09-24T04:35:36.428Z,893.48
2018-09-24T04:36:36.417Z,893.51
2018-09-24T04:37:36.406Z,893.52
2018-09-24T04:38:36.396Z,893.57
2018-09-24T04:39:36.465Z,893.56
2018-09-24T04:40:36.366Z,893.60
2018-09-24T04:41:36.360Z,893.63
2018-09-24T04:42:36.344Z,893.68
2018-09-24T04:43:36.331Z,893.65
2018-09-24T04:44:36.317Z,893.69
2018-09-24T04:45:36.304Z,893.71
2018-09-24T04:46:36.292Z,893.73
2018-09-24T04:47:36.284Z,893.74
2018-09-24T04:48:36.271Z,893.81
2018-09-24T04:49:36.269Z,893.82
2018-09-24T04:50:36.241Z,893.80
2018-09-24T04:51:36.233Z,893.79
2018-09-24T04:52:36.229Z,893.84
2018-09-24T04:53:36.238Z,893.91
2018-09-24T04:54:36.197Z,893.89
2018-09-24T04:55:36.181Z,893.95
2018-09-24T04:56:36.167Z,894.00
2018-09-24T04:57:36.154Z,894.01
2018-09-24T04:58:36.160Z,894.02
2018-09-24T04:59:36.134Z,894.01
2018-09-24T05:00:36.120Z,894.03
2018-09-24T05:01:36.106Z,894.03
2018-09-24T05:02:36.094Z,893.99
2018-09-24T05:03:36.080Z,894.07
2018-09-24T05:04:36.064Z,894.11
2018-09-24T05:05:36.055Z,894.06
2018-09-24T05:06:36.040Z,894.07
2018-09-24T05:07:36.031Z,894.07
2018-09-24T05:08:36.017Z,894.12
2018-09-24T05:09:36.005Z,894.15
2018-09-24T05:10:35.992Z,894.13
2018-09-24T05:11:35.995Z,894.13
2018-09-24T05:12:35.970Z,894.15
2018-09-24T05:13:35.973Z,894.11
2018-09-24T05:14:35.943Z,894.16
2018-09-24T05:15:35.929Z,894.19
2018-09-24T05:16:35.988Z,894.18
2018-09-24T05:17:35.907Z,894.27
2018-09-24T05:18:35.897Z,894.24
2018-09-24T05:19:35.877Z,894.22
2018-09-24T05:20:35.861Z,894.28
2018-09-24T05:21:35.853Z,894.31
2018-09-24T05:22:35.832Z,894.29
2018-09-24T05:23:35.826Z,894.31
2018-09-24T05:24:35.818Z,894.35
2018-09-24T05:25:35.802Z,894.34
2018-09-24T05:26:35.797Z,894.28
2018-09-24T05:27:35.778Z,894.30
2018-09-24T05:28:35.768Z,894.36
2018-09-24T05:29:35.753Z,894.38
2018-09-24T05:30:35.741Z,894.40
2018-09-24T05:31:35.733Z,894.45
2018-09-24T05:32:35.711Z,894.48
2018-09-24T05:33:35.697Z,894.48
2018-09-24T05:34:35.799Z,894.50
2018-09-24T05:35:35.675Z,894.51
2018-09-24T05:36:35.675Z,894.47
2018-09-24T05:37:35.646Z,894.56
2018-09-24T05:38:35.638Z,894.58
2018-09-24T05:39:35.622Z,894.59
2018-09-24T05:40:35.607Z,894.66
2018-09-24T05:41:35.596Z,894.71
2018-09-24T05:42:35.588Z,894.79
2018-09-24T05:43:35.573Z,894.75
2018-09-24T05:44:35.562Z,894.77
2018-09-24T05:45:35.540Z,894.80
2018-09-24T05:46:35.533Z,894.81
2018-09-24T05:47:35.523Z,894.85
2018-09-24T05:48:35.505Z,894.92
2018-09-24T05:49:35.502Z,894.97
2018-09-24T05:50:35.486Z,895.03
2018-09-24T05:51:35.470Z,895.08
2018-09-24T05:52:35.459Z,895.10
2018-09-24T05:53:35.449Z,895.19
2018-09-24T05:54:35.431Z,895.19
2018-09-24T05:55:35.417Z,895.21
2018-09-24T05:56:35.403Z,895.22
2018-09-24T05:57:35.395Z,895.17
2018-09-24T05:58:35.385Z,895.11
2018-09-24T05:59:35.367Z,895.12
2018-09-24T06:00:35.350Z,895.15
2018-09-24T06:01:35.347Z,895.16
2018-09-24T06:02:35.324Z,895.26
2018-09-24T06:03:35.314Z,895.31
2018-09-24T06:04:35.378Z,895.37
2018-09-24T06:05:35.288Z,895.37
2018-09-24T06:06:35.274Z,895.37
2018-09-24T06:07:35.266Z,895.35
2018-09-24T06:08:35.255Z,895.36
2018-09-24T06:09:35.244Z,895.37
2018-09-24T06:10:35.223Z,895.33
2018-09-24T06:11:35.211Z,895.33
2018-09-24T06:12:35.199Z,895.33
2018-09-24T06:13:35.229Z,895.47
2018-09-24T06:14:35.177Z,895.54
2018-09-24T06:15:35.163Z,895.64
2018-09-24T06:16:35.145Z,895.60
2018-09-24T06:17:35.134Z,895.61
2018-09-24T06:18:35.120Z,895.58
2018-09-24T06:19:35.108Z,895.61
2018-09-24T06:20:35.092Z,895.63
2018-09-24T06:21:35.082Z,895.64
2018-09-24T06:22:35.072Z,895.66
2018-09-24T06:23:35.058Z,895.67
2018-09-24T06:24:35.041Z,895.71
2018-09-24T06:25:35.025Z,895.76
2018-09-24T06:26:35.020Z,895.79
2018-09-24T06:27:35.005Z,895.76
2018-09-24T06:28:34.993Z,895.80
2018-09-24T06:29:34.987Z,895.84
2018-09-24T06:30:34.965Z,895.89
2018-09-24T06:31:34.951Z,895.91
2018-09-24T06:32:34.937Z,895.92
2018-09-24T06:33:34.926Z,895.92
2018-09-24T06:34:34.913Z,895.91
2018-09-24T06:35:34.897Z,895.99
2018-09-24T06:36:34.883Z,896.01
2018-09-24T06:37:34.870Z,896.05
2018-09-24T06:38:34.861Z,896.00
2018-09-24T06:39:34.855Z,896.03
2018-09-24T06:40:34.834Z,895.97
2018-09-24T06:41:34.821Z,896.13
2018-09-24T06:42:34.821Z,896.19
2018-09-24T06:43:34.795Z,896.23
2018-09-24T06:44:34.779Z,896.23
2018-09-24T06:45:34.766Z,896.28
2018-09-24T06:46:34.764Z,896.32
2018-09-24T06:47:34.740Z,896.27
2018-09-24T06:48:34.732Z,896.29
2018-09-24T06:49:34.768Z,896.32
2018-09-24T06:50:34.697Z,896.36
2018-09-24T06:51:34.689Z,896.45
2018-09-24T06:52:34.675Z,896.41
2018-09-24T06:53:34.661Z,896.40
2018-09-24T06:54:34.658Z,896.42
2018-09-24T06:55:34.637Z,896.40
2018-09-24T06:56:34.617Z,896.50
2018-09-24T06:57:34.609Z,896.57
2018-09-24T06:58:34.590Z,896.54
2018-09-24T06:59:34.619Z,896.61
2018-09-24T07:00:34.571Z,896.65
2018-09-24T07:01:34.549Z,896.67
2018-09-24T07:02:34.539Z,896.76
2018-09-24T07:03:34.524Z,896.82
2018-09-24T07:04:34.515Z,896.82
2018-09-24T07:05:34.585Z,896.84
2018-09-24T07:06:34.488Z,896.88
2018-09-24T07:07:34.470Z,896.90
2018-09-24T07:08:34.460Z,896.91
2018-09-24T07:09:34.448Z,896.92
2018-09-24T07:10:34.433Z,896.87
2018-09-24T07:11:34.421Z,896.95
2018-09-24T07:12:34.402Z,896.93
2018-09-24T07:13:34.395Z,896.92
2018-09-24T07:14:34.383Z,896.92
2018-09-24T07:15:34.380Z,896.92
2018-09-24T07:16:34.357Z,896.92
2018-09-24T07:17:34.346Z,896.93
2018-09-24T07:18:34.328Z,896.90
2018-09-24T07:19:34.311Z,896.92
2018-09-24T07:20:34.299Z,896.95
2018-09-24T07:21:34.325Z,897.06
2018-09-24T07:22:34.275Z,897.16
2018-09-24T07:23:34.257Z,897.13
2018-09-24T07:24:34.249Z,897.14
2018-09-24T07:25:34.235Z,897.12
2018-09-24T07:26:34.221Z,897.05
2018-09-24T07:27:34.240Z,897.06
2018-09-24T07:28:34.197Z,897.09
2018-09-24T07:29:34.182Z,897.16
2018-09-24T07:30:34.170Z,897.17
2018-09-24T07:31:34.155Z,897.16
2018-09-24T07:32:34.139Z,897.19
2018-09-24T07:33:34.122Z,897.21
2018-09-24T07:34:34.114Z,897.19
2018-09-24T07:35:34.100Z,897.19
2018-09-24T07:36:34.084Z,897.19
2018-09-24T07:37:34.073Z,897.15
2018-09-24T07:38:34.060Z,897.15
2018-09-24T07:39:34.043Z,897.12
2018-09-24T07:40:34.030Z,897.17
2018-09-24T07:41:34.017Z,897.22
2018-09-24T07:42:34.007Z,897.25
2018-09-24T07:43:34.015Z,897.27
2018-09-24T07:44:33.976Z,897.31
2018-09-24T07:45:33.968Z,897.31
2018-09-24T07:46:33.951Z,897.28
2018-09-24T07:47:33.944Z,897.27
2018-09-24T07:48:33.927Z,897.29
2018-09-24T07:49:33.915Z,897.36
2018-09-24T07:50:33.900Z,897.40
2018-09-24T07:51:33.887Z,897.45
2018-09-24T07:52:33.867Z,897.48
2018-09-24T07:53:33.861Z,897.50
2018-09-24T07:54:33.851Z,897.44
2018-09-24T07:55:33.920Z,897.40
2018-09-24T07:56:33.822Z,897.38
2018-09-24T07:57:33.811Z,897.39
2018-09-24T07:58:33.796Z,897.37
2018-09-24T07:59:33.786Z,897.38
2018-09-24T08:00:33.766Z,897.35
2018-09-24T08:01:33.760Z,897.42
2018-09-24T08:02:33.743Z,897.46
2018-09-24T08:03:33.728Z,897.50
2018-09-24T08:04:33.717Z,897.51
2018-09-24T08:05:33.708Z,897.52
2018-09-24T08:06:33.691Z,897.45
2018-09-24T08:07:33.726Z,897.54
2018-09-24T08:08:33.666Z,897.66
2018-09-24T08:09:33.654Z,897.71
2018-09-24T08:10:33.642Z,897.77
2018-09-24T08:11:33.632Z,897.79
2018-09-24T08:12:33.614Z,897.80
2018-09-24T08:13:33.602Z,897.79
2018-09-24T08:14:33.590Z,897.79
2018-09-24T08:15:33.580Z,897.77
2018-09-24T08:16:33.563Z,897.84
2018-09-24T08:17:33.555Z,897.90
2018-09-24T08:18:33.539Z,897.89
2018-09-24T08:19:33.528Z,897.88
2018-09-24T08:20:33.512Z,897.87
2018-09-24T08:21:33.503Z,897.89
2018-09-24T08:22:33.490Z,897.91
2018-09-24T08:23:33.481Z,897.93
2018-09-24T08:24:33.462Z,897.97
2018-09-24T08:25:33.451Z,897.97
2018-09-24T08:26:33.441Z,898.01
2018-09-24T08:27:33.431Z,898.04
2018-09-24T08:28:33.416Z,898.14
2018-09-24T08:29:33.405Z,898.15
2018-09-24T08:30:33.389Z,898.16
2018-09-24T08:31:33.385Z,898.11
2018-09-24T08:32:33.362Z,898.13
2018-09-24T08:33:33.352Z,898.15
2018-09-24T08:34:33.340Z,898.13
2018-09-24T08:35:33.324Z,898.10
2018-09-24T08:36:33.314Z,898.07
2018-09-24T08:37:33.302Z,898.07
2018-09-24T08:38:33.293Z,898.03
2018-09-24T08:39:33.277Z,898.02
2018-09-24T08:40:33.265Z,898.04
2018-09-24T08:41:33.252Z,898.05
2018-09-24T08:42:33.237Z,898.04
2018-09-24T08:43:33.226Z,898.07
2018-09-24T08:44:33.215Z,898.04
2018-09-24T08:45:33.197Z,898.04
2018-09-24T08:46:33.192Z,898.02
2018-09-24T08:47:33.186Z,897.98
2018-09-24T08:48:33.162Z,897.97
2018-09-24T08:49:33.174Z,897.95
2018-09-24T08:50:33.138Z,897.94
2018-09-24T08:51:33.127Z,897.90
2018-09-24T08:52:33.114Z,897.94
2018-09-24T08:53:33.097Z,897.95
2018-09-24T08:54:33.084Z,898.00
2018-09-24T08:55:33.079Z,898.02
2018-09-24T08:56:33.072Z,898.07
2018-09-24T08:57:33.051Z,898.05
2018-09-24T08:58:33.060Z,898.01
2018-09-24T08:59:33.021Z,898.12
2018-09-24T09:00:33.014Z,898.11
2018-09-24T09:01:33.000Z,898.13
2018-09-24T09:02:33.019Z,898.11
2018-09-24T09:03:32.975Z,898.10
2018-09-24T09:04:32.963Z,898.13
2018-09-24T09:05:32.948Z,898.10
2018-09-24T09:06:32.934Z,898.12
2018-09-24T09:07:32.925Z,898.16
2018-09-24T09:08:32.905Z,898.15
2018-09-24T09:09:32.895Z,898.22
2018-09-24T09:10:32.886Z,898.15
2018-09-24T09:11:32.873Z,898.20
2018-09-24T09:12:32.853Z,898.23
2018-09-24T09:13:32.844Z,898.26
2018-09-24T09:14:32.830Z,898.21
2018-09-24T09:15:32.812Z,898.20
2018-09-24T09:16:32.803Z,898.20
2018-09-24T09:17:32.796Z,898.21
2018-09-24T09:18:32.779Z,898.16
2018-09-24T09:19:32.769Z,898.20
2018-09-24T09:20:32.752Z,898.25
2018-09-24T09:21:32.744Z,898.30
2018-09-24T09:22:32.733Z,898.30
2018-09-24T09:23:32.714Z,898.34
2018-09-24T09:24:32.699Z,898.33
2018-09-24T09:25:32.691Z,898.36
2018-09-24T09:26:32.683Z,898.38
2018-09-24T09:27:32.665Z,898.33
2018-09-24T09:28:32.655Z,898.37
2018-09-24T09:29:32.653Z,898.34
2018-09-24T09:30:32.630Z,898.29
2018-09-24T09:31:32.614Z,898.30
2018-09-24T09:32:32.604Z,898.32
2018-09-24T09:33:32.596Z,898.34
2018-09-24T09:34:32.576Z,898.39
2018-09-24T09:35:32.566Z,898.49
2018-09-24T09:36:32.552Z,898.45
2018-09-24T09:37:32.537Z,898.56
2018-09-24T09:38:32.526Z,898.52
2018-09-24T09:39:32.512Z,898.50
2018-09-24T09:40:32.506Z,898.51
2018-09-24T09:41:32.491Z,898.43
2018-09-24T09:42:32.473Z,898.37
2018-09-24T09:43:32.467Z,898.39
2018-09-24T09:44:32.450Z,898.45
2018-09-24T09:45:32.436Z,898.43
2018-09-24T09:46:32.426Z,898.44
2018-09-24T09:47:32.418Z,898.47
2018-09-24T09:48:32.396Z,898.50
2018-09-24T09:49:32.395Z,898.47
2018-09-24T09:50:32.378Z,898.48
2018-09-24T09:51:32.360Z,898.44
2018-09-24T09:52:32.350Z,898.50
2018-09-24T09:53:32.398Z,898.49
2018-09-24T09:54:32.320Z,898.48
2018-09-24T09:55:32.317Z,898.47
2018-09-24T09:56:32.299Z,898.45
2018-09-24T09:57:32.290Z,898.39
2018-09-24T09:58:32.275Z,898.41
2018-09-24T09:59:32.259Z,898.46
2018-09-24T10:00:32.256Z,898.46
2018-09-24T10:01:32.237Z,898.48
2018-09-24T10:02:32.229Z,898.47
2018-09-24T10:03:32.215Z,898.52
2018-09-24T10:04:32.207Z,898.58
2018-09-24T10:05:32.185Z,898.53
2018-09-24T10:06:32.177Z,898.54
2018-09-24T10:07:32.165Z,898.55
2018-09-24T10:08:32.147Z,898.50
2018-09-24T10:09:32.135Z,898.46
2018-09-24T10:10:32.124Z,898.48
2018-09-24T10:11:32.112Z,898.43
2018-09-24T10:12:32.097Z,898.43
2018-09-24T10:13:32.092Z,898.39
2018-09-24T10:14:32.090Z,898.41
2018-09-24T10:15:32.063Z,898.38
2018-09-24T10:16:32.054Z,898.41
2018-09-24T10:17:32.037Z,898.44
2018-09-24T10:18:32.025Z,898.41
2018-09-24T10:19:32.016Z,898.45
2018-09-24T10:20:31.999Z,898.46
2018-09-24T10:21:31.987Z,898.47
2018-09-24T10:22:31.985Z,898.48
2018-09-24T10:23:31.965Z,898.48
2018-09-24T10:24:31.952Z,898.50
2018-09-24T10:25:31.940Z,898.51
2018-09-24T10:26:31.929Z,898.50
2018-09-24T10:27:31.912Z,898.48
2018-09-24T10:28:31.903Z,898.45
2018-09-24T10:29:31.897Z,898.49
2018-09-24T10:30:31.877Z,898.47
2018-09-24T10:31:31.866Z,898.49
2018-09-24T10:32:31.852Z,898.46
2018-09-24T10:33:31.877Z,898.47
2018-09-24T10:34:31.825Z,898.46
2018-09-24T10:35:31.815Z,898.47
2018-09-24T10:36:31.801Z,898.55
2018-09-24T10:37:31.793Z,898.51
2018-09-24T10:38:31.779Z,898.53
2018-09-24T10:39:31.798Z,898.51
2018-09-24T10:40:31.753Z,898.53
2018-09-24T10:41:31.741Z,898.54
2018-09-24T10:42:31.727Z,898.60
2018-09-24T10:43:31.718Z,898.56
2018-09-24T10:44:31.699Z,898.54
2018-09-24T10:45:31.694Z,898.50
2018-09-24T10:46:31.680Z,898.50
2018-09-24T10:47:31.664Z,898.51
2018-09-24T10:48:31.657Z,898.50
2018-09-24T10:49:31.643Z,898.53
2018-09-24T10:50:31.637Z,898.54
2018-09-24T10:51:31.621Z,898.56
2018-09-24T10:52:31.605Z,898.57
2018-09-24T10:53:31.589Z,898.53
2018-09-24T10:54:31.578Z,898.59
2018-09-24T10:55:31.572Z,898.61
2018-09-24T10:56:31.552Z,898.61
2018-09-24T10:57:31.544Z,898.58
2018-09-24T10:58:31.537Z,898.61
2018-09-24T10:59:31.560Z,898.63
2018-09-24T11:00:31.506Z,898.63
2018-09-24T11:01:31.505Z,898.71
2018-09-24T11:02:31.492Z,898.69
2018-09-24T11:03:31.475Z,898.66
2018-09-24T11:04:31.466Z,898.65
2018-09-24T11:05:31.448Z,898.64
2018-09-24T11:06:31.434Z,898.65
2018-09-24T11:07:31.426Z,898.64
2018-09-24T11:08:31.414Z,898.62
2018-09-24T11:09:31.400Z,898.67
2018-09-24T11:10:31.386Z,898.60
2018-09-24T11:11:31.374Z,898.63
2018-09-24T11:12:31.367Z,898.59
2018-09-24T11:13:31.353Z,898.57
2018-09-24T11:14:31.343Z,898.52
2018-09-24T11:15:31.403Z,898.47
2018-09-24T11:16:31.435Z,898.49
2018-09-24T11:17:31.414Z,898.47
2018-09-24T11:18:31.293Z,898.44
2018-09-24T11:19:31.283Z,898.42
2018-09-24T11:20:31.272Z,898.44
2018-09-24T11:21:31.250Z,898.46
2018-09-24T11:22:31.241Z,898.45
2018-09-24T11:23:31.248Z,898.45
2018-09-24T11:24:31.214Z,898.42
2018-09-24T11:25:31.208Z,898.46
2018-09-24T11:27:31.182Z,898.50
2018-09-24T11:28:31.169Z,898.51
2018-09-24T11:29:31.222Z,898.50
2018-09-24T11:30:31.148Z,898.38
2018-09-24T11:31:31.135Z,898.36
2018-09-24T11:32:31.122Z,898.42
2018-09-24T11:33:31.107Z,898.46
2018-09-24T11:34:31.092Z,898.39
2018-09-24T11:35:31.087Z,898.45
2018-09-24T11:36:31.073Z,898.45
2018-09-24T11:37:31.078Z,898.45
2018-09-24T11:38:31.049Z,898.49
2018-09-24T11:39:31.043Z,898.48
2018-09-24T11:40:31.023Z,898.45
2018-09-24T11:41:31.011Z,898.53
2018-09-24T11:42:31.000Z,898.44
2018-09-24T11:43:30.987Z,898.45
2018-09-24T11:44:30.974Z,898.44
2018-09-24T11:45:30.960Z,898.38
2018-09-24T11:46:30.960Z,898.48
2018-09-24T11:47:30.942Z,898.45
2018-09-24T11:48:30.932Z,898.38
2018-09-24T11:49:30.910Z,898.35
2018-09-24T11:50:30.904Z,898.38
2018-09-24T11:51:30.891Z,898.38
2018-09-24T11:52:30.886Z,898.40
2018-09-24T11:53:30.872Z,898.43
2018-09-24T11:54:30.858Z,898.43
2018-09-24T11:55:30.854Z,898.41
2018-09-24T11:56:30.835Z,898.39
2018-09-24T11:57:30.829Z,898.50
2018-09-24T11:58:30.811Z,898.51
2018-09-24T11:59:30.801Z,898.50
2018-09-24T12:00:30.788Z,898.49
2018-09-24T12:01:30.779Z,898.51
2018-09-24T12:02:30.791Z,898.58
2018-09-24T12:03:30.752Z,898.58
2018-09-24T12:04:30.742Z,898.54
2018-09-24T12:05:30.734Z,898.53
2018-09-24T12:06:30.723Z,898.49
2018-09-24T12:07:30.704Z,898.50
2018-09-24T12:08:30.701Z,898.45
2018-09-24T12:09:30.684Z,898.44
2018-09-24T12:10:30.724Z,898.47
2018-09-24T12:11:30.664Z,898.41
2018-09-24T12:12:30.654Z,898.49
2018-09-24T12:13:30.644Z,898.47
2018-09-24T12:14:30.624Z,898.46
2018-09-24T12:15:30.618Z,898.45
2018-09-24T12:16:30.604Z,898.37
2018-09-24T12:17:30.597Z,898.43
2018-09-24T12:18:30.593Z,898.47
2018-09-24T12:19:30.582Z,898.43
2018-09-24T12:20:30.561Z,898.48
2018-09-24T12:21:30.553Z,898.50
2018-09-24T12:22:30.541Z,898.55
2018-09-24T12:23:30.533Z,898.59
2018-09-24T12:24:30.521Z,898.62
2018-09-24T12:25:30.507Z,898.58
2018-09-24T12:26:30.503Z,898.54
2018-09-24T12:27:30.487Z,898.55
2018-09-24T12:28:30.476Z,898.55
2018-09-24T12:29:30.462Z,898.50